Latest Weather Observations for Cape Byron

IDN60801

Issued at 10:22 pm EST Sunday 3 July 2022 (issued every 10 minutes, with the page automatically refreshed every 10 minutes)

About weather observations | Map of weather stations | Latest weather observations for NSW | Other Formats
Station Details ID: 058216 Name: CAPE BYRON AWS Lat: -28.64 Lon: 153.64 Height: 95.0 m
Data from the previous 72 hours. | See also: Recent months at Cape Byron
Date/Time
EST
Temp
°C
App
Temp
°C
Dew
Point
°C
Rel
Hum
%
Delta-T
°C
Wind Press
QNH
hPa
Press
MSL
hPa
Rain since
9am
mm
Dir  Spd
km/h
Gust
km/h
Spd
kts
Gust
kts
03/10:00pm 14.4 13.7 13.1 92 0.7 WNW 9 13 5 7 1014.4 1014.3 0.0
03/09:30pm 14.6 13.7 12.5 87 1.2 NW 9 15 5 8 1014.9 1014.8 0.0
03/09:00pm 15.1 13.9 12.8 86 1.3 NW 11 15 6 8 1014.4 1014.3 0.0
03/08:30pm 15.2 13.0 12.2 82 1.6 W 15 17 8 9 1014.2 1014.1 0.0
03/08:00pm 15.7 13.6 12.3 80 1.9 W 15 20 8 11 1013.8 1013.7 0.0
03/07:30pm 15.7 14.0 12.3 80 1.9 WNW 13 15 7 8 1014.1 1014.0 0.0
03/07:00pm 15.4 13.8 12.7 84 1.5 WNW 13 17 7 9 1014.4 1014.3 0.0
03/06:30pm 16.0 14.7 12.6 80 1.9 WNW 11 13 6 7 1013.7 1013.6 0.0
03/06:00pm 16.8 16.2 12.3 75 2.5 SSW 7 9 4 5 1013.5 1013.4 0.0
03/05:30pm 17.1 16.2 12.6 75 2.5 S 9 13 5 7 1013.5 1013.4 0.0
03/05:00pm 17.6 16.3 12.5 72 2.8 SSE 11 15 6 8 1013.3 1013.2 0.0
03/04:30pm 17.6 15.9 12.3 71 2.9 SE 13 17 7 9 1013.3 1013.2 0.0
03/04:00pm 17.6 15.5 12.3 71 2.9 SE 15 19 8 10 1013.0 1012.9 0.0
03/03:30pm 18.0 16.4 12.7 71 3.0 SE 13 17 7 9 1012.9 1012.8 0.0
03/03:00pm 17.7 16.5 12.8 73 2.7 E 11 17 6 9 1013.2 1013.1 0.0
03/02:30pm 18.6 16.9 12.6 68 3.4 SE 13 15 7 8 1013.0 1012.9 0.0
03/02:00pm 19.2 18.3 12.7 66 3.7 E 9 13 5 7 1013.2 1013.1 0.0
03/01:30pm 19.3 18.4 12.6 65 3.8 SE 9 11 5 6 1013.3 1013.2 0.0
03/01:00pm 18.6 17.6 12.4 67 3.5 S 9 13 5 7 1013.6 1013.5 0.0
03/12:30pm 18.1 17.1 12.3 69 3.2 S 9 13 5 7 1013.9 1013.8 0.0
03/12:00pm 18.0 17.3 13.1 73 2.8 SSW 9 15 5 8 1014.2 1014.1 0.0
03/11:30am 17.4 15.8 11.7 69 3.1 SSW 11 17 6 9 1014.7 1014.6 0.0
03/11:00am 16.7 14.3 11.4 71 2.9 SW 15 22 8 12 1015.1 1015.0 0.0
03/10:30am 16.0 14.0 11.4 74 2.5 SW 13 20 7 11 1015.5 1015.4 0.0
03/10:00am 15.3 12.4 11.1 76 2.2 SW 17 24 9 13 1015.7 1015.6 0.0
03/09:30am 14.8 11.4 10.6 76 2.2 WSW 19 26 10 14 1015.8 1015.7 0.0
03/09:00am 14.5 11.0 10.1 75 2.3 WSW 19 24 10 13 1015.9 1015.8 1.2
03/08:30am 13.9 9.4 9.9 77 2.1 SW 24 32 13 17 1015.6 1015.5 1.2
03/08:00am 13.5 8.9 9.7 78 2.0 WSW 24 32 13 17 1015.5 1015.4 1.2
03/07:30am 13.6 9.0 9.8 78 2.0 WSW 24 32 13 17 1015.6 1015.5 1.2
03/07:00am 13.5 8.6 9.9 79 1.9 SW 26 35 14 19 1015.4 1015.3 1.2
03/06:30am 13.4 8.6 10.2 81 1.7 SW 26 33 14 18 1015.1 1015.0 1.2
03/06:00am 13.7 8.5 10.3 80 1.8 WSW 28 41 15 22 1014.7 1014.6 1.2
03/05:30am 13.6 8.1 10.6 82 1.6 WSW 30 39 16 21 1014.4 1014.3 1.2
03/05:00am 13.7 8.7 11.0 84 1.4 WSW 28 35 15 19 1014.4 1014.3 1.2
03/04:30am 13.6 8.7 11.3 86 1.2 WSW 28 37 15 20 1014.3 1014.2 1.2
03/04:00am 13.6 8.4 11.5 87 1.1 WSW 30 41 16 22 1014.3 1014.2 1.2
03/03:30am 13.4 8.2 11.6 89 1.0 WSW 30 39 16 21 1014.3 1014.2 1.2
03/03:00am 13.6 8.1 11.8 89 1.0 WSW 32 39 17 21 1014.6 1014.5 1.2
03/02:30am 13.6 8.6 12.3 92 0.7 WSW 30 37 16 20 1015.0 1014.9 1.2
03/02:00am 13.5 9.3 12.4 93 0.6 WSW 26 33 14 18 1015.2 1015.1 1.2
03/01:30am 13.7 9.1 12.4 92 0.7 WSW 28 35 15 19 1015.3 1015.2 1.2
03/01:00am 13.7 9.6 12.6 93 0.6 WSW 26 32 14 17 1015.6 1015.5 1.2
03/12:30am 13.7 10.0 12.8 94 0.5 WSW 24 32 13 17 1015.6 1015.5 1.2
03/12:00am 13.8 9.8 12.9 94 0.5 WSW 26 33 14 18 1015.9 1015.8 1.2
 
Date/Time
EST
Temp
°C
App
Temp
°C
Dew
Point
°C
Rel
Hum
%
Delta-T
°C
Wind Press
QNH
hPa
Press
MSL
hPa
Rain since
9am
mm
Dir  Spd
km/h
Gust
km/h
Spd
kts
Gust
kts
02/11:30pm 13.8 9.8 12.9 94 0.5 WSW 26 32 14 17 1015.9 1015.8 1.2
02/11:00pm 13.8 9.8 12.9 94 0.5 WSW 26 32 14 17 1016.0 1015.9 1.2
02/10:30pm 13.6 10.4 13.0 96 0.3 WSW 22 30 12 16 1016.4 1016.2 1.2
02/10:00pm 13.7 10.5 13.1 96 0.3 WSW 22 28 12 15 1016.6 1016.4 1.2
02/09:30pm 13.7 10.5 13.2 97 0.3 SW 22 28 12 15 1016.7 1016.5 1.2
02/09:00pm 13.6 10.8 13.3 98 0.2 SW 20 26 11 14 1016.6 1016.4 1.2
02/08:30pm 13.7 11.5 13.4 98 0.2 SW 17 20 9 11 1017.0 1016.8 1.2
02/08:00pm 13.7 11.2 13.4 98 0.2 SW 19 24 10 13 1016.9 1016.7 1.2
02/07:30pm 13.7 11.5 13.4 98 0.2 SSW 17 20 9 11 1016.8 1016.6 1.2
02/07:00pm 13.7 12.3 13.4 98 0.2 SW 13 19 7 10 1016.9 1016.7 1.2
02/06:30pm 13.6 11.0 13.3 98 0.2 SSW 19 22 10 12 1016.9 1016.7 1.2
02/06:00pm 13.7 11.5 13.4 98 0.2 SSW 17 22 9 12 1016.7 1016.5 1.2
02/05:30pm 13.7 11.5 13.2 97 0.3 SSW 17 20 9 11 1016.7 1016.5 1.2
02/05:00pm 13.8 11.0 13.3 97 0.3 WSW 20 24 11 13 1016.8 1016.6 1.2
02/04:30pm 13.9 11.4 13.4 97 0.3 WSW 19 24 10 13 1016.3 1016.1 1.0
02/04:00pm 14.5 13.4 14.2 98 0.2 S 13 15 7 8 1016.0 1015.9 1.0
02/03:30pm 13.8 11.1 13.5 98 0.2 SW 20 28 11 15 1016.5 1016.3 1.0
02/03:00pm 13.7 10.6 13.4 98 0.2 WSW 22 32 12 17 1016.3 1016.1 0.8
02/02:30pm 13.9 10.0 13.4 97 0.3 W 26 39 14 21 1017.1 1016.9 0.4
02/02:00pm 14.0 10.9 13.5 97 0.3 W 22 30 12 16 1017.6 1017.5 0.2
02/01:30pm 13.9 10.8 13.4 97 0.3 W 22 33 12 18 1016.9 1016.7 0.2
02/01:00pm 13.9 10.4 13.4 97 0.3 WSW 24 33 13 18 1017.2 1017.0 0.2
02/12:30pm 13.9 9.6 13.3 96 0.3 SW 28 39 15 21 1017.5 1017.4 0.0
02/12:00pm 14.0 9.8 13.4 96 0.3 SW 28 39 15 21 1018.3 1018.2 0.0
02/11:30am 14.1 10.3 13.5 96 0.3 WSW 26 33 14 18 1018.7 1018.6 0.0
02/11:00am 14.2 10.9 13.9 98 0.2 SW 24 30 13 16 1018.2 1018.1 0.0
02/10:30am 13.7 9.5 13.4 98 0.2 SW 28 35 15 19 1018.6 1018.5 0.0
02/10:00am 13.5 9.6 13.3 99 0.1 WSW 26 33 14 18 1019.2 1019.1 0.0
02/09:30am 13.3 9.3 13.1 99 0.1 SW 26 33 14 18 1019.0 1018.9 0.0
02/09:00am 13.0 8.9 12.8 99 0.1 WSW 26 35 14 19 1019.3 1019.2 20.0
02/08:30am 13.0 8.9 12.8 99 0.1 SW 26 33 14 18 1019.0 1018.9 19.8
02/08:00am 12.8 9.1 12.6 99 0.1 SW 24 32 13 17 1019.1 1019.0 19.6
02/07:30am 12.7 8.5 12.5 99 0.1 SW 26 33 14 18 1019.4 1019.3 19.4
02/07:00am 12.8 9.1 12.6 99 0.1 SW 24 32 13 17 1019.3 1019.2 18.4
02/06:30am 13.1 9.5 12.9 99 0.1 SW 24 28 13 15 1019.1 1019.0 17.2
02/06:00am 13.5 10.7 13.3 99 0.1 SW 20 30 11 16 1018.9 1018.8 15.8
02/05:30am 13.2 10.0 13.0 99 0.1 SW 22 26 12 14 1018.8 1018.7 14.6
02/05:00am 13.4 10.8 13.2 99 0.1 SW 19 22 10 12 1018.8 1018.7 13.4
02/04:30am 13.4 10.8 13.2 99 0.1 SSW 19 22 10 12 1018.7 1018.6 12.8
02/04:00am 13.4 10.8 13.2 99 0.1 SSW 19 24 10 13 1019.1 1019.0 12.4
02/03:30am 13.3 11.0 13.1 99 0.1 SSW 17 22 9 12 1019.5 1019.4 11.6
02/03:00am 13.1 10.4 12.9 99 0.1 SW 19 22 10 12 1019.8 1019.7 11.0
02/02:30am 13.1 10.2 12.8 98 0.2 SW 20 26 11 14 1020.1 1020.0 10.6
02/02:00am 13.3 11.0 13.0 98 0.2 SW 17 20 9 11 1020.4 1020.3 10.2
02/01:30am 13.3 11.0 13.0 98 0.2 SW 17 20 9 11 1020.6 1020.5 9.8
02/01:00am 13.6 11.4 13.3 98 0.2 SW 17 19 9 10 1021.0 1020.9 9.6
02/12:30am 13.6 12.2 13.3 98 0.2 SSW 13 19 7 10 1021.1 1021.0 9.6
02/12:00am 13.8 12.4 13.3 97 0.3 SSW 13 22 7 12 1021.5 1021.4 9.4
 
Date/Time
EST
Temp
°C
App
Temp
°C
Dew
Point
°C
Rel
Hum
%
Delta-T
°C
Wind Press
QNH
hPa
Press
MSL
hPa
Rain since
9am
mm
Dir  Spd
km/h
Gust
km/h
Spd
kts
Gust
kts
01/11:30pm 13.8 12.4 13.3 97 0.3 SSW 13 19 7 10 1021.4 1021.3 9.2
01/11:00pm 13.7 12.2 13.2 97 0.3 SSW 13 15 7 8 1021.5 1021.4 9.0
01/10:30pm 13.9 12.9 13.4 97 0.3 S 11 15 6 8 1021.8 1021.7 8.8
01/10:00pm 13.6 12.1 13.1 97 0.3 SSW 13 17 7 9 1021.9 1021.8 8.6
01/09:30pm 14.0 12.6 13.5 97 0.3 SSW 13 17 7 9 1022.5 1022.4 8.0
01/09:00pm 14.0 12.6 13.5 97 0.3 SSW 13 15 7 8 1022.0 1021.9 7.8
01/08:30pm 14.2 12.9 13.7 97 0.3 SSW 13 15 7 8 1021.7 1021.6 7.6
01/08:00pm 14.1 12.7 13.5 96 0.3 SSW 13 15 7 8 1021.8 1021.7 7.4
01/07:30pm 14.2 13.3 13.6 96 0.3 S 11 13 6 7 1021.9 1021.8 7.4
01/07:00pm 13.8 12.8 13.3 97 0.3 SSW 11 13 6 7 1021.9 1021.8 7.4
01/06:30pm 13.8 12.8 13.3 97 0.3 SW 11 15 6 8 1022.0 1021.9 7.2
01/06:00pm 14.0 13.4 13.5 97 0.3 SW 9 13 5 7 1022.0 1021.9 7.0
01/05:30pm 13.7 11.9 13.2 97 0.3 SW 15 19 8 10 1021.4 1021.3 6.8
01/05:00pm 13.8 11.7 13.5 98 0.2 SW 17 20 9 11 1021.5 1021.4 6.8
01/04:30pm 13.9 12.6 13.6 98 0.2 SW 13 17 7 9 1021.7 1021.6 6.6
01/04:00pm 13.8 11.3 13.5 98 0.2 WSW 19 22 10 12 1021.7 1021.6 6.6
01/03:30pm 14.2 12.6 13.9 98 0.2 SW 15 19 8 10 1021.5 1021.4 6.2
01/03:00pm 14.2 12.2 13.9 98 0.2 SW 17 20 9 11 1021.4 1021.3 5.4
01/02:30pm 14.5 14.1 14.2 98 0.2 SSW 9 11 5 6 1021.2 1021.1 4.8
01/02:00pm 14.2 13.0 13.9 98 0.2 SW 13 19 7 10 1021.2 1021.1 4.4
01/01:30pm 14.0 11.9 13.7 98 0.2 WSW 17 22 9 12 1021.3 1021.2 4.0
01/01:00pm 13.8 11.7 13.5 98 0.2 SW 17 24 9 13 1021.6 1021.5 3.8
01/12:30pm 13.8 11.2 13.3 97 0.3 SW 19 24 10 13 1022.0 1021.9 3.2
01/12:00pm 14.0 11.9 13.5 97 0.3 SW 17 20 9 11 1022.7 1022.6 3.0
01/11:30am 13.9 11.7 13.4 97 0.3 SW 17 19 9 10 1023.0 1022.9 2.6
01/11:00am 13.6 10.9 13.0 96 0.3 SW 19 26 10 14 1023.4 1023.3 2.2
01/10:30am 13.5 10.2 12.7 95 0.4 WSW 22 30 12 16 1023.9 1023.8 1.4
01/10:00am 13.6 9.9 12.8 95 0.4 WSW 24 30 13 16 1023.6 1023.5 1.0
01/09:30am 13.4 9.6 12.5 94 0.5 WSW 24 30 13 16 1023.9 1023.8 0.6
01/09:00am 13.4 9.5 12.1 92 0.7 WSW 24 30 13 16 1023.7 1023.6 1.4
01/08:30am 13.6 10.0 12.0 90 0.9 SW 22 28 12 15 1023.7 1023.6 1.0
01/08:00am 13.7 9.4 11.9 89 1.0 WSW 26 30 14 16 1023.5 1023.4 0.8
01/07:30am 13.5 9.2 12.1 91 0.8 SW 26 33 14 18 1023.3 1023.2 0.8
01/07:00am 13.5 9.5 11.9 90 0.9 SW 24 33 13 18 1023.3 1023.2 0.6
01/06:30am 13.8 9.8 11.7 87 1.1 WSW 24 28 13 15 1022.9 1022.8 0.0
01/06:00am 14.4 10.2 11.0 80 1.8 WSW 24 28 13 15 1022.6 1022.5 0.0
01/05:30am 14.8 11.0 11.0 78 2.0 SW 22 30 12 16 1022.3 1022.2 0.0
01/05:00am 14.8 11.1 11.4 80 1.8 WSW 22 28 12 15 1022.3 1022.2 0.0
01/04:30am 14.8 11.1 11.6 81 1.7 SW 22 26 12 14 1022.3 1022.2 0.0
01/04:00am 14.7 11.5 11.8 83 1.6 SW 20 26 11 14 1022.3 1022.2 0.0
01/03:30am 14.8 11.9 12.3 85 1.4 SW 19 24 10 13 1022.3 1022.2 0.0
01/03:00am 15.0 11.8 12.0 82 1.6 SW 20 26 11 14 1022.0 1021.9 0.0
01/02:30am 15.2 11.7 12.3 83 1.6 SW 22 28 12 15 1022.2 1022.1 0.0
01/02:00am 15.3 11.9 12.6 84 1.5 SW 22 28 12 15 1022.5 1022.4 0.0
01/01:30am 15.5 12.5 12.6 83 1.6 SW 20 26 11 14 1023.0 1022.9 0.0
01/01:00am 15.6 12.6 12.7 83 1.6 SW 20 26 11 14 1023.1 1023.0 0.0
01/12:30am 15.7 12.8 12.3 80 1.9 SW 19 22 10 12 1023.1 1023.0 0.0
01/12:00am 15.8 13.0 12.5 81 1.8 SW 19 22 10 12 1023.2 1023.1 0.0
 
Date/Time
EST
Temp
°C
App
Temp
°C
Dew
Point
°C
Rel
Hum
%
Delta-T
°C
Wind Press
QNH
hPa
Press
MSL
hPa
Rain since
9am
mm
Dir  Spd
km/h
Gust
km/h
Spd
kts
Gust
kts
30/11:30pm 15.9 13.1 12.6 81 1.8 SW 19 22 10 12 1023.5 1023.4 0.0
30/11:00pm 15.9 13.9 12.8 82 1.7 SW 15 19 8 10 1023.6 1023.5 0.0
30/10:30pm 15.9 14.1 13.2 84 1.5 SW 15 17 8 9 1023.7 1023.6 0.0

Other formats

Comma delimited format used in spreadsheet applications
http://www.bom.gov.au/fwo/IDN60801/IDN60801.94599.axf

JavaScript Object Notation format (JSON) in row-major order
http://www.bom.gov.au/fwo/IDN60801/IDN60801.94599.json

Data quality

Most of these data are generated automatically and are frequently updated. Quality checks on data are not normally performed. It is possible for incorrect values to appear. Refer to information at About Latest Weather Observations and please check the disclaimer before using these data.